createdAt,value
2018-06-02T00:01:35.646Z,13.27
2018-06-02T00:06:38.907Z,17.60
2018-06-02T00:11:42.178Z,19.47
2018-06-02T00:16:45.439Z,16.93
2018-06-02T00:21:48.707Z,18.87
2018-06-02T00:26:51.975Z,16.00
2018-06-02T00:31:55.238Z,26.27
2018-06-02T00:36:59.267Z,18.30
2018-06-02T00:42:02.540Z,19.37
2018-06-02T00:47:05.802Z,20.60
2018-06-02T00:52:09.062Z,24.77
2018-06-02T00:57:13.091Z,18.50
2018-06-02T01:02:16.350Z,22.23
2018-06-02T01:07:19.610Z,18.80
2018-06-02T01:12:22.876Z,17.03
2018-06-02T01:17:26.134Z,12.60
2018-06-02T01:22:30.266Z,15.67
2018-06-02T01:27:33.533Z,13.80
2018-06-02T01:32:36.819Z,10.77
2018-06-02T01:37:40.084Z,15.33
2018-06-02T01:42:44.118Z,14.07
2018-06-02T01:47:47.386Z,9.50
2018-06-02T01:52:50.651Z,13.83
2018-06-02T01:57:54.687Z,16.20
2018-06-02T02:02:58.831Z,11.70
2018-06-02T02:08:02.092Z,12.00
2018-06-02T02:13:05.351Z,17.07
2018-06-02T02:18:09.341Z,12.07
2018-06-02T02:23:12.603Z,10.77
2018-06-02T02:28:15.870Z,27.57
2018-06-02T02:33:19.135Z,19.80
2018-06-02T02:38:22.401Z,15.07
2018-06-02T02:43:25.671Z,24.80
2018-06-02T02:48:29.014Z,12.63
2018-06-02T02:53:32.292Z,12.07
2018-06-02T02:58:36.339Z,14.33
2018-06-02T03:03:39.641Z,26.27
2018-06-02T03:08:43.688Z,23.93
2018-06-02T03:13:46.960Z,15.73
2018-06-02T03:18:50.279Z,14.97
2018-06-02T03:23:53.558Z,19.50
2018-06-02T03:28:56.819Z,16.27
2018-06-02T03:34:00.103Z,19.80
2018-06-02T03:39:04.943Z,18.90
2018-06-02T03:44:08.195Z,20.67
2018-06-02T03:49:12.737Z,19.67
2018-06-02T03:54:15.982Z,31.27
2018-06-02T03:59:19.242Z,29.73
2018-06-02T04:04:22.526Z,28.47
2018-06-02T04:09:25.801Z,25.83
2018-06-02T04:14:30.031Z,25.97
2018-06-02T04:19:33.295Z,32.23
2018-06-02T04:24:36.562Z,26.37
2018-06-02T04:29:40.764Z,31.57
2018-06-02T04:34:44.850Z,32.73
2018-06-02T04:39:48.110Z,29.83
2018-06-02T04:44:51.383Z,26.77
2018-06-02T04:49:54.682Z,26.70
2018-06-02T04:54:57.952Z,34.83
2018-06-02T05:00:01.235Z,26.27
2018-06-02T05:05:04.506Z,32.03
2018-06-02T05:10:07.776Z,23.23
2018-06-02T05:15:11.039Z,36.27
2018-06-02T05:20:14.303Z,37.63
2018-06-02T05:25:17.604Z,33.07
2018-06-02T05:30:21.647Z,29.10
2018-06-02T05:35:25.755Z,30.77
2018-06-02T05:40:29.054Z,34.60
2018-06-02T05:45:32.288Z,22.57
2018-06-02T05:50:35.575Z,44.17
2018-06-02T05:55:38.838Z,36.83
2018-06-02T06:00:42.122Z,29.63
2018-06-02T06:05:46.164Z,32.70
2018-06-02T06:10:49.412Z,39.03
2018-06-02T06:15:52.670Z,34.67
2018-06-02T06:20:55.956Z,32.50
2018-06-02T06:25:59.226Z,34.50
2018-06-02T06:31:02.518Z,41.33
2018-06-02T06:36:05.791Z,35.30
2018-06-02T06:41:09.864Z,36.30
2018-06-02T06:46:13.138Z,35.93
2018-06-02T06:51:17.370Z,33.33
2018-06-02T06:56:20.633Z,37.17
2018-06-02T07:01:23.891Z,33.03
2018-06-02T07:06:27.152Z,43.77
2018-06-02T07:11:31.944Z,36.10
2018-06-02T07:16:35.881Z,38.67
2018-06-02T07:21:39.159Z,27.77
2018-06-02T07:26:43.199Z,26.77
2018-06-02T07:31:46.479Z,26.60
2018-06-02T07:36:50.671Z,20.87
2018-06-02T07:41:53.945Z,17.60
2018-06-02T07:46:57.346Z,16.33
2018-06-02T07:52:01.636Z,14.80
2018-06-02T07:57:04.901Z,17.23
2018-06-02T08:02:08.240Z,13.63
2018-06-02T08:07:11.487Z,14.07
2018-06-02T08:12:14.819Z,16.93
2018-06-02T08:17:18.849Z,11.83
2018-06-02T08:22:22.107Z,13.33
2018-06-02T08:27:25.388Z,14.40
2018-06-02T08:32:28.673Z,11.37
2018-06-02T08:37:31.924Z,11.30
2018-06-02T08:42:35.202Z,12.40
2018-06-02T08:47:38.467Z,10.97
2018-06-02T08:52:41.775Z,9.80
2018-06-02T08:57:45.187Z,10.57
2018-06-02T09:02:48.425Z,10.33
2018-06-02T09:07:52.701Z,9.53
2018-06-02T09:12:55.972Z,9.27
2018-06-02T09:17:59.999Z,10.73
2018-06-02T09:23:03.271Z,7.97
2018-06-02T09:28:06.545Z,10.00
2018-06-02T09:33:09.788Z,6.83
2018-06-02T09:38:13.043Z,10.63
2018-06-02T09:43:16.322Z,9.23
2018-06-02T09:48:19.585Z,7.87
2018-06-02T09:53:22.879Z,7.73
2018-06-02T09:58:26.144Z,6.30
2018-06-02T10:03:30.187Z,5.53
2018-06-02T10:08:33.438Z,6.90
2018-06-02T10:13:36.702Z,5.40
2018-06-02T10:18:42.852Z,5.53
2018-06-02T10:23:46.081Z,5.67
2018-06-02T10:28:50.934Z,6.13
2018-06-02T10:33:54.950Z,6.00
2018-06-02T10:38:58.211Z,6.20
2018-06-02T10:44:01.488Z,4.77
2018-06-02T10:49:04.760Z,6.63
2018-06-02T10:54:08.118Z,4.60
2018-06-02T10:59:11.376Z,7.47
2018-06-02T11:04:15.011Z,5.20
2018-06-02T11:09:18.276Z,6.43
2018-06-02T11:14:21.527Z,5.37
2018-06-02T11:19:24.783Z,5.27
2018-06-02T11:24:28.069Z,7.63
2018-06-02T11:29:31.307Z,6.50
2018-06-02T11:34:34.584Z,5.63
2018-06-02T11:39:37.849Z,6.40
2018-06-02T11:44:41.118Z,5.43
2018-06-02T11:49:44.386Z,5.90
2018-06-02T11:54:47.972Z,5.27
2018-06-02T11:59:51.234Z,8.33
2018-06-02T12:04:54.483Z,6.17
2018-06-02T12:09:57.987Z,7.43
2018-06-02T12:15:01.219Z,6.70
2018-06-02T12:20:05.264Z,5.70
2018-06-02T12:25:08.522Z,6.67
2018-06-02T12:30:11.799Z,7.70
2018-06-02T12:35:15.058Z,6.27
2018-06-02T12:40:18.333Z,6.27
2018-06-02T12:45:21.583Z,5.83
2018-06-02T12:50:24.855Z,5.20
2018-06-02T12:55:28.217Z,5.67
2018-06-02T13:00:31.503Z,6.23
2018-06-02T13:05:34.803Z,6.10
2018-06-02T13:10:38.087Z,5.87
2018-06-02T13:15:41.342Z,5.50
2018-06-02T13:20:44.603Z,4.70
2018-06-02T13:25:47.873Z,4.60
2018-06-02T13:30:51.128Z,4.20
2018-06-02T13:35:54.392Z,5.20
2018-06-02T13:40:57.647Z,4.53
2018-06-02T13:46:00.938Z,3.87
2018-06-02T13:51:04.199Z,3.83
2018-06-02T13:56:07.496Z,4.07
2018-06-02T14:01:10.798Z,3.87
2018-06-02T14:06:14.064Z,3.60
2018-06-02T14:11:17.321Z,3.77
2018-06-02T14:16:20.571Z,3.90
2018-06-02T14:21:23.819Z,3.63
2018-06-02T14:26:27.075Z,3.60
2018-06-02T14:31:30.334Z,4.27
2018-06-02T14:36:33.604Z,3.80
2018-06-02T14:41:36.860Z,4.03
2018-06-02T14:46:40.119Z,4.30
2018-06-02T14:51:43.386Z,3.77
2018-06-02T14:56:46.726Z,4.40
2018-06-02T15:01:50.737Z,3.90
2018-06-02T15:06:53.995Z,4.80
2018-06-02T15:11:57.262Z,4.03
2018-06-02T15:17:00.535Z,4.40
2018-06-02T15:22:04.575Z,3.60
2018-06-02T15:27:07.822Z,3.93
2018-06-02T15:32:11.105Z,4.00
2018-06-02T15:37:15.127Z,4.10
2018-06-02T15:42:19.152Z,3.63
2018-06-02T15:47:23.191Z,4.50
2018-06-02T15:52:26.451Z,4.17
2018-06-02T15:57:30.529Z,3.07
2018-06-02T16:02:34.990Z,3.40
2018-06-02T16:07:38.215Z,2.90
2018-06-02T16:12:41.566Z,3.50
2018-06-02T16:17:44.855Z,3.80
2018-06-02T16:22:48.139Z,3.87
2018-06-02T16:27:51.413Z,4.20
2018-06-02T16:32:54.689Z,4.70
2018-06-02T16:37:57.959Z,4.00
2018-06-02T16:43:01.221Z,3.87
2018-06-02T16:48:04.484Z,5.43
2018-06-02T16:53:07.754Z,4.03
2018-06-02T16:58:11.075Z,3.40
2018-06-02T17:03:14.339Z,5.00
2018-06-02T17:08:17.713Z,4.30
2018-06-02T17:13:20.959Z,3.63
2018-06-02T17:18:24.207Z,3.70
2018-06-02T17:23:27.469Z,4.33
2018-06-02T17:28:30.723Z,4.50
2018-06-02T17:33:34.838Z,3.77
2018-06-02T17:38:38.191Z,4.20
2018-06-02T17:43:41.463Z,4.13
2018-06-02T17:48:44.711Z,3.20
2018-06-02T17:53:47.993Z,3.73
2018-06-02T17:58:52.111Z,3.97
2018-06-02T18:03:55.370Z,3.87
2018-06-02T18:08:58.822Z,3.60
2018-06-02T18:14:02.126Z,5.10
2018-06-02T18:19:06.154Z,5.03
2018-06-02T18:24:10.359Z,4.00
2018-06-02T18:29:14.515Z,3.53
2018-06-02T18:34:17.772Z,6.23
2018-06-02T18:39:21.054Z,6.00
2018-06-02T18:44:24.299Z,5.73
2018-06-02T18:49:27.590Z,4.63
2018-06-02T18:54:30.847Z,4.43
2018-06-02T18:59:34.164Z,4.90
2018-06-02T19:04:37.431Z,4.83
2018-06-02T19:09:40.684Z,3.67
2018-06-02T19:14:43.947Z,5.77
2018-06-02T19:19:47.251Z,4.53
2018-06-02T19:24:50.597Z,5.23
2018-06-02T19:29:53.876Z,4.97
2018-06-02T19:34:57.128Z,3.73
2018-06-02T19:40:00.420Z,5.30
2018-06-02T19:45:03.655Z,5.77
2018-06-02T19:50:06.903Z,3.30
2018-06-02T19:55:10.160Z,3.67
2018-06-02T20:00:13.411Z,3.60
2018-06-02T20:05:16.683Z,6.13
2018-06-02T20:10:19.943Z,4.00
2018-06-02T20:15:23.209Z,6.43
2018-06-02T20:20:26.463Z,4.57
2018-06-02T20:25:29.727Z,4.20
2018-06-02T20:30:32.994Z,5.23
2018-06-02T20:35:36.279Z,4.50
2018-06-02T20:40:39.531Z,5.97
2018-06-02T20:45:42.799Z,4.60
2018-06-02T20:50:46.055Z,4.40
2018-06-02T20:55:49.317Z,4.50
2018-06-02T21:00:52.743Z,4.27
2018-06-02T21:05:56.787Z,4.10
2018-06-02T21:11:00.063Z,3.97
2018-06-02T21:16:03.323Z,4.07
2018-06-02T21:21:06.567Z,4.43
2018-06-02T21:26:10.639Z,4.73
2018-06-02T21:31:13.908Z,5.93
2018-06-02T21:36:17.149Z,4.70
2018-06-02T21:41:20.385Z,5.17
2018-06-02T21:46:23.651Z,5.57
2018-06-02T21:51:27.671Z,5.40
2018-06-02T21:56:30.919Z,7.43
2018-06-02T22:01:34.206Z,6.60
2018-06-02T22:06:37.480Z,6.60
2018-06-02T22:11:46.635Z,6.80
2018-06-02T22:16:49.878Z,6.40
2018-06-02T22:21:53.137Z,7.30
2018-06-02T22:26:56.384Z,7.40
2018-06-02T22:32:00.412Z,7.53
2018-06-02T22:37:03.675Z,8.27
2018-06-02T22:42:06.935Z,8.20
2018-06-02T22:47:10.224Z,11.17
2018-06-02T22:52:14.788Z,9.00
2018-06-02T22:57:18.816Z,9.23
2018-06-02T23:02:22.115Z,9.83
2018-06-02T23:07:25.407Z,10.03
2018-06-02T23:12:29.447Z,12.17
2018-06-02T23:17:32.719Z,14.77
2018-06-02T23:22:38.927Z,12.47
2018-06-02T23:27:42.960Z,12.17
2018-06-02T23:32:46.215Z,12.10
2018-06-02T23:37:49.526Z,13.30
2018-06-02T23:42:52.770Z,13.23
2018-06-02T23:47:56.790Z,20.03
2018-06-02T23:53:00.812Z,13.70
2018-06-02T23:58:04.862Z,15.20
